Time;durP1;ratioP1;P1;durP2;ratioP2;P2;SDS_P1;SDS_P2;PMS_P1;PMS_P2;Temp;Humidity;BMP_temperature;BMP_pressure;BME280_temperature;BME280_humidity;BME280_pressure;Samples;Min_cycle;Max_cycle;Signal;HPM_P1;HPM_P2
2021/04/20 00:01:42;;;;;;;6.73;6.43;;;23.60;96.30;;;;;;3617864;39;20482;-41
2021/04/20 00:04:09;;;;;;;6.60;6.20;;;23.70;96.30;;;;;;3627226;39;20495;-40
2021/04/20 00:06:36;;;;;;;6.87;6.57;;;23.70;96.30;;;;;;3626161;39;20495;-40
2021/04/20 00:09:05;;;;;;;7.97;7.40;;;23.70;96.30;;;;;;3625608;39;20479;-40
2021/04/20 00:11:32;;;;;;;7.10;6.80;;;23.70;96.30;;;;;;3626115;39;20573;-40
2021/04/20 00:13:59;;;;;;;7.40;7.00;;;23.70;96.20;;;;;;3625794;39;20517;-40
2021/04/20 00:16:25;;;;;;;7.50;7.10;;;23.70;96.20;;;;;;3626199;39;20484;-40
2021/04/20 00:18:52;;;;;;;8.07;7.37;;;23.70;96.20;;;;;;3627178;39;20899;-40
2021/04/20 00:21:19;;;;;;;8.27;7.67;;;23.70;96.20;;;;;;3627510;39;20489;-40
2021/04/20 00:23:46;;;;;;;8.30;7.67;;;23.70;96.20;;;;;;3628482;39;20477;-40
2021/04/20 00:26:13;;;;;;;6.83;6.53;;;23.70;96.10;;;;;;3628368;39;20839;-40
2021/04/20 00:28:39;;;;;;;7.70;7.20;;;23.70;96.10;;;;;;3627502;39;20514;-40
2021/04/20 00:31:06;;;;;;;7.70;7.20;;;23.70;96.10;;;;;;3627249;39;20507;-40
2021/04/20 00:33:37;;;;;;;7.20;6.80;;;23.70;96.10;;;;;;3626312;39;20472;-40
2021/04/20 00:36:04;;;;;;;7.90;7.50;;;23.70;96.10;;;;;;3626993;39;20479;-40
2021/04/20 00:38:32;;;;;;;7.30;6.90;;;23.70;96.00;;;;;;3626707;39;20528;-40
2021/04/20 00:41:03;;;;;;;7.77;7.37;;;23.80;96.10;;;;;;3627430;39;20485;-40
2021/04/20 00:43:34;;;;;;;8.07;7.67;;;23.70;96.00;;;;;;3626923;39;20460;-40
2021/04/20 00:46:01;;;;;;;7.13;6.83;;;23.70;96.10;;;;;;3627224;39;20698;-41
2021/04/20 00:48:28;;;;;;;7.60;7.20;;;23.80;96.00;;;;;;3627896;39;20479;-40
2021/04/20 00:50:55;;;;;;;7.60;7.20;;;23.80;96.00;;;;;;3618516;39;20488;-40
2021/04/20 00:53:21;;;;;;;7.70;7.30;;;23.80;96.00;;;;;;3619799;39;20474;-40
2021/04/20 00:55:49;;;;;;;6.47;6.17;;;23.80;96.00;;;;;;3630012;39;20469;-41
2021/04/20 00:58:16;;;;;;;7.50;7.13;;;23.80;96.00;;;;;;3626473;39;20491;-40
2021/04/20 01:00:43;;;;;;;8.10;7.63;;;23.80;95.90;;;;;;3628741;39;20854;-41
2021/04/20 01:03:09;;;;;;;8.67;8.20;;;23.80;95.90;;;;;;3628999;39;20784;-40
2021/04/20 01:05:39;;;;;;;7.27;6.97;;;23.80;95.90;;;;;;3628648;39;20492;-40
2021/04/20 01:08:07;;;;;;;7.60;7.20;;;23.80;95.90;;;;;;3627564;39;20475;-41
2021/04/20 01:10:36;;;;;;;7.43;7.03;;;23.80;95.90;;;;;;3627618;39;20483;-42
2021/04/20 01:13:05;;;;;;;7.73;7.33;;;23.80;95.80;;;;;;3627663;39;20564;-41
2021/04/20 01:15:32;;;;;;;7.97;7.40;;;23.80;95.80;;;;;;3618677;39;20473;-40
2021/04/20 01:18:09;;;;;;;7.50;7.20;;;23.80;95.80;;;;;;3628334;39;20472;-41
2021/04/20 01:20:36;;;;;;;7.43;7.03;;;23.80;95.80;;;;;;3629293;39;20479;-41
2021/04/20 01:23:03;;;;;;;7.50;7.10;;;23.80;95.80;;;;;;3627798;39;20469;-42
2021/04/20 01:25:31;;;;;;;7.47;7.07;;;23.90;95.80;;;;;;3618490;39;20471;-41
2021/04/20 01:27:58;;;;;;;7.87;7.47;;;23.80;95.70;;;;;;3628270;39;20504;-40
2021/04/20 01:30:24;;;;;;;7.90;7.50;;;23.90;95.80;;;;;;3628420;39;20472;-40
2021/04/20 01:32:51;;;;;;;7.47;7.07;;;23.90;95.80;;;;;;3628839;39;20506;-40
2021/04/20 01:35:17;;;;;;;7.70;7.30;;;23.80;95.70;;;;;;3628692;39;20712;-41
2021/04/20 01:37:44;;;;;;;7.23;6.83;;;23.80;95.70;;;;;;3627437;39;20614;-40
2021/04/20 01:40:12;;;;;;;8.90;8.50;;;23.90;95.70;;;;;;3617711;39;20472;-40
2021/04/20 01:42:39;;;;;;;8.70;8.33;;;23.80;95.60;;;;;;3627822;39;20485;-41
2021/04/20 01:45:07;;;;;;;9.10;8.60;;;23.90;95.70;;;;;;3627642;39;20506;-41
2021/04/20 01:47:35;;;;;;;9.30;8.90;;;23.80;95.60;;;;;;3627963;39;20477;-41
2021/04/20 01:50:01;;;;;;;10.27;9.40;;;23.90;95.60;;;;;;3628407;39;20694;-40
2021/04/20 01:52:28;;;;;;;8.90;8.50;;;23.90;95.60;;;;;;3626526;39;20525;-41
2021/04/20 01:54:55;;;;;;;8.77;8.40;;;23.90;95.60;;;;;;3627592;39;20723;-41
2021/04/20 01:57:23;;;;;;;9.33;8.93;;;23.90;95.60;;;;;;3626233;39;20490;-40
2021/04/20 01:59:51;;;;;;;9.53;9.13;;;23.90;95.60;;;;;;3627684;39;20485;-41
2021/04/20 02:02:18;;;;;;;9.50;9.00;;;23.90;95.50;;;;;;3609111;39;20465;-40
2021/04/20 02:04:45;;;;;;;7.67;7.27;;;23.90;95.60;;;;;;3627713;39;20489;-41
2021/04/20 02:07:12;;;;;;;8.03;7.63;;;23.90;95.50;;;;;;3626978;39;20473;-40
2021/04/20 02:09:40;;;;;;;8.00;7.60;;;23.90;95.50;;;;;;3628088;39;20729;-40
2021/04/20 02:12:07;;;;;;;8.13;7.67;;;23.90;95.50;;;;;;3627651;39;20467;-40
2021/04/20 02:14:37;;;;;;;9.40;8.90;;;23.90;95.50;;;;;;3627749;39;20488;-40
2021/04/20 02:17:05;;;;;;;8.13;7.63;;;23.90;95.50;;;;;;3627985;39;20852;-41
2021/04/20 02:19:33;;;;;;;9.17;8.70;;;23.90;95.50;;;;;;3627656;39;20497;-41
2021/04/20 02:22:01;;;;;;;9.77;9.27;;;23.90;95.40;;;;;;3627232;39;20564;-40
2021/04/20 02:24:29;;;;;;;9.13;8.73;;;23.90;95.40;;;;;;3621972;39;20488;-41
2021/04/20 02:26:57;;;;;;;9.00;8.60;;;23.90;95.40;;;;;;3617446;39;20482;-40
2021/04/20 02:29:24;;;;;;;8.80;8.50;;;23.90;95.40;;;;;;3626181;39;20497;-41
2021/04/20 02:31:51;;;;;;;7.90;7.60;;;23.90;95.40;;;;;;3628748;39;20480;-40
2021/04/20 02:34:20;;;;;;;8.17;7.83;;;23.90;95.30;;;;;;3628388;39;20566;-40
2021/04/20 02:36:49;;;;;;;7.90;7.50;;;23.90;95.40;;;;;;3627472;39;20494;-41
2021/04/20 02:39:16;;;;;;;8.20;7.80;;;23.90;95.40;;;;;;3627273;39;20460;-42
2021/04/20 02:41:45;;;;;;;8.17;7.77;;;23.90;95.30;;;;;;3627459;39;20493;-41
2021/04/20 02:44:12;;;;;;;8.87;8.37;;;23.90;95.30;;;;;;3627831;39;20509;-40
2021/04/20 02:46:41;;;;;;;8.27;7.90;;;23.90;95.30;;;;;;3629027;39;20487;-40
2021/04/20 02:49:08;;;;;;;7.87;7.47;;;23.90;95.30;;;;;;3628876;39;20806;-40
2021/04/20 02:51:36;;;;;;;8.93;8.33;;;23.90;95.30;;;;;;3626556;39;20491;-41
2021/04/20 02:54:03;;;;;;;8.77;8.20;;;23.90;95.30;;;;;;3626881;39;20484;-40
2021/04/20 02:56:31;;;;;;;8.80;8.30;;;23.90;95.30;;;;;;3617811;39;20477;-40
2021/04/20 02:59:00;;;;;;;8.67;8.23;;;23.90;95.20;;;;;;3625941;39;20493;-40
2021/04/20 03:01:30;;;;;;;8.70;8.20;;;23.90;95.20;;;;;;3626786;39;20573;-40
2021/04/20 03:03:58;;;;;;;9.47;9.07;;;23.90;95.20;;;;;;3627597;39;20493;-41
2021/04/20 03:06:25;;;;;;;8.73;8.33;;;23.90;95.20;;;;;;3626960;39;20576;-40
2021/04/20 03:08:52;;;;;;;8.80;8.20;;;23.90;95.20;;;;;;3626773;39;20616;-40
2021/04/20 03:11:23;;;;;;;8.50;8.10;;;24.00;95.20;;;;;;3627071;39;20474;-40
2021/04/20 03:13:51;;;;;;;9.47;9.07;;;24.00;95.20;;;;;;3627411;39;20487;-40
2021/04/20 03:16:18;;;;;;;9.03;8.63;;;23.90;95.20;;;;;;3626861;39;20790;-41
2021/04/20 03:18:49;;;;;;;9.47;9.07;;;24.00;95.20;;;;;;3625015;39;20589;-40
2021/04/20 03:21:16;;;;;;;9.67;9.17;;;24.00;95.10;;;;;;3615970;39;20526;-40
2021/04/20 03:23:43;;;;;;;8.40;7.80;;;24.00;95.10;;;;;;3616626;39;20671;-40
2021/04/20 03:26:31;;;;;;;8.50;8.10;;;24.00;95.10;;;;;;3615859;39;20477;-41
2021/04/20 03:29:01;;;;;;;8.30;7.70;;;24.00;95.10;;;;;;3615776;39;20781;-40
2021/04/20 03:31:27;;;;;;;8.30;7.90;;;24.00;95.10;;;;;;3616306;39;20488;-40
2021/04/20 03:34:01;;;;;;;8.57;8.07;;;24.00;95.10;;;;;;3615299;39;20993;-40
2021/04/20 03:36:32;;;;;;;7.90;7.50;;;24.00;95.00;;;;;;3615304;39;20631;-40
2021/04/20 03:39:04;;;;;;;8.93;8.40;;;24.00;95.00;;;;;;3615371;39;20499;-40
2021/04/20 03:41:37;;;;;;;9.20;8.70;;;24.00;95.00;;;;;;3616463;39;20559;-40
2021/04/20 03:44:08;;;;;;;8.93;8.43;;;24.00;95.00;;;;;;3625646;39;20557;-40
2021/04/20 03:46:38;;;;;;;8.70;8.20;;;24.10;95.00;;;;;;3625747;39;20492;-41
2021/04/20 03:49:11;;;;;;;8.63;8.17;;;24.10;94.90;;;;;;3626018;39;20694;-41
2021/04/20 03:51:41;;;;;;;9.13;8.63;;;24.10;94.90;;;;;;3624696;39;20831;-40
2021/04/20 03:54:08;;;;;;;8.80;8.40;;;24.10;94.90;;;;;;3625419;39;20855;-40
2021/04/20 03:56:38;;;;;;;8.70;8.30;;;24.20;94.90;;;;;;3626264;39;20473;-41
2021/04/20 03:59:06;;;;;;;8.57;8.17;;;24.20;94.90;;;;;;3622536;39;20812;-40
2021/04/20 04:01:38;;;;;;;8.33;7.93;;;24.20;94.80;;;;;;3615402;39;20593;-40
2021/04/20 04:04:07;;;;;;;8.63;8.20;;;24.20;94.80;;;;;;3616281;39;20575;-40
2021/04/20 04:06:36;;;;;;;8.70;8.30;;;24.20;94.80;;;;;;3615537;39;20490;-40
2021/04/20 04:09:03;;;;;;;9.93;9.43;;;24.20;94.80;;;;;;3615217;39;20831;-41
2021/04/20 04:11:33;;;;;;;9.43;8.93;;;24.20;94.70;;;;;;3615979;39;20938;-41
2021/04/20 04:14:02;;;;;;;8.47;8.07;;;24.30;94.70;;;;;;3616304;39;20481;-40
2021/04/20 04:16:31;;;;;;;9.30;8.90;;;24.30;94.70;;;;;;3615840;39;20482;-41
2021/04/20 04:19:00;;;;;;;9.80;9.20;;;24.30;94.60;;;;;;3616793;39;20828;-40
2021/04/20 04:21:35;;;;;;;9.87;9.37;;;24.30;94.60;;;;;;3615921;39;20500;-41
2021/04/20 04:24:05;;;;;;;9.13;8.73;;;24.40;94.60;;;;;;3621548;39;20534;-40
2021/04/20 04:26:36;;;;;;;10.53;9.73;;;24.40;94.50;;;;;;3626303;39;20486;-40
2021/04/20 04:29:04;;;;;;;9.20;8.80;;;24.40;94.50;;;;;;3624336;39;20968;-41
2021/04/20 04:31:33;;;;;;;8.87;8.43;;;24.40;94.50;;;;;;3616405;39;20485;-40
2021/04/20 04:34:01;;;;;;;8.67;8.30;;;24.40;94.40;;;;;;3626352;39;21057;-41
2021/04/20 04:36:28;;;;;;;8.43;8.13;;;24.40;94.40;;;;;;3622675;39;20491;-41
2021/04/20 04:38:55;;;;;;;9.00;8.50;;;24.40;94.40;;;;;;3624576;39;20510;-40
2021/04/20 04:41:22;;;;;;;9.10;8.70;;;24.40;94.40;;;;;;3625013;39;20483;-41
2021/04/20 04:43:50;;;;;;;8.97;8.57;;;24.50;94.40;;;;;;3624254;39;20638;-41
2021/04/20 04:46:24;;;;;;;9.03;8.53;;;24.50;94.30;;;;;;3623089;39;20491;-40
2021/04/20 04:48:52;;;;;;;9.13;8.73;;;24.50;94.30;;;;;;3622995;39;20837;-41
2021/04/20 04:51:20;;;;;;;8.83;8.43;;;24.50;94.20;;;;;;3620945;39;20542;-40
2021/04/20 04:53:48;;;;;;;9.00;8.60;;;24.60;94.20;;;;;;3620517;39;20481;-41
2021/04/20 04:56:18;;;;;;;8.53;8.23;;;24.60;94.20;;;;;;3623932;39;20491;-40
2021/04/20 04:58:46;;;;;;;8.80;8.40;;;24.60;94.20;;;;;;3622709;39;20483;-41
2021/04/20 05:01:13;;;;;;;8.87;8.43;;;24.60;94.20;;;;;;3620844;39;20698;-42
2021/04/20 05:03:41;;;;;;;9.17;8.77;;;24.60;94.20;;;;;;3621106;39;20556;-40
2021/04/20 05:06:13;;;;;;;9.63;9.20;;;24.60;94.10;;;;;;3614323;39;20732;-43
2021/04/20 05:08:40;;;;;;;10.10;9.60;;;24.60;94.10;;;;;;3617447;39;20472;-41
2021/04/20 05:11:06;;;;;;;9.53;9.13;;;24.60;94.00;;;;;;3621530;39;20480;-40
2021/04/20 05:13:34;;;;;;;9.40;9.00;;;24.60;94.00;;;;;;3615547;39;20489;-40
2021/04/20 05:16:05;;;;;;;10.10;9.47;;;24.70;94.00;;;;;;3616950;39;20884;-41
2021/04/20 05:18:33;;;;;;;9.73;9.23;;;24.60;94.00;;;;;;3610535;39;20501;-40
2021/04/20 05:21:01;;;;;;;9.50;9.00;;;24.70;94.00;;;;;;3609281;39;20512;-40
2021/04/20 05:23:28;;;;;;;9.73;9.23;;;24.70;94.00;;;;;;3609873;39;21285;-41
2021/04/20 05:25:54;;;;;;;9.27;8.67;;;24.70;93.90;;;;;;3601714;39;20803;-41
2021/04/20 05:28:21;;;;;;;9.33;8.93;;;24.70;93.90;;;;;;3612228;39;20500;-41
2021/04/20 05:30:49;;;;;;;9.87;9.37;;;24.70;93.90;;;;;;3616571;39;20481;-41
2021/04/20 05:33:16;;;;;;;9.70;9.30;;;24.70;93.90;;;;;;3617447;39;20492;-40
2021/04/20 05:35:43;;;;;;;9.90;9.40;;;24.80;93.90;;;;;;3615546;39;20481;-40
2021/04/20 05:38:10;;;;;;;9.70;9.20;;;24.80;93.90;;;;;;3605852;39;20693;-40
2021/04/20 05:40:39;;;;;;;9.40;9.00;;;24.80;93.90;;;;;;3608506;39;21009;-40
2021/04/20 05:43:06;;;;;;;20.67;19.03;;;24.80;93.80;;;;;;3603818;39;20704;-40
2021/04/20 05:45:34;;;;;;;21.87;20.07;;;24.70;79.90;;;;;;3603830;39;20881;-42
2021/04/20 05:48:01;;;;;;;26.63;23.83;;;24.30;70.10;;;;;;3603552;39;20786;-41
2021/04/20 05:50:29;;;;;;;61.67;40.37;;;23.90;67.80;;;;;;3601694;39;20489;-40
2021/04/20 05:52:57;;;;;;;59.17;36.40;;;23.40;67.90;;;;;;3602225;39;20598;-40
2021/04/20 05:55:24;;;;;;;61.53;38.60;;;23.00;67.60;;;;;;3601678;39;20904;-40
2021/04/20 05:57:53;;;;;;;53.73;33.30;;;22.60;67.30;;;;;;3600101;39;21090;-42
2021/04/20 06:00:21;;;;;;;68.80;40.90;;;22.30;67.00;;;;;;3599417;39;21027;-44
2021/04/20 06:02:50;;;;;;;119.60;57.00;;;22.10;68.70;;;;;;3601047;39;20495;-43
2021/04/20 06:05:20;;;;;;;107.80;59.30;;;22.00;75.90;;;;;;3604543;39;20824;-44
2021/04/20 06:07:49;;;;;;;88.60;48.50;;;22.10;82.20;;;;;;3608477;39;20693;-44
2021/04/20 06:10:16;;;;;;;74.57;41.97;;;22.30;87.10;;;;;;3609607;39;20501;-44
2021/04/20 06:12:45;;;;;;;78.83;43.50;;;22.50;89.70;;;;;;3607398;39;20502;-45
2021/04/20 06:15:14;;;;;;;76.03;42.10;;;22.70;90.50;;;;;;3608289;39;20515;-44
2021/04/20 06:17:41;;;;;;;65.27;40.27;;;22.90;90.80;;;;;;3606542;39;20487;-46
2021/04/20 06:20:11;;;;;;;54.93;35.67;;;23.10;91.00;;;;;;3605926;39;20784;-45
2021/04/20 06:22:39;;;;;;;56.63;36.73;;;23.30;91.00;;;;;;3602745;39;20689;-44
2021/04/20 06:25:10;;;;;;;49.10;32.13;;;23.40;91.10;;;;;;3606475;39;20834;-45
2021/04/20 06:27:48;;;;;;;46.77;30.73;;;23.50;91.20;;;;;;3607613;39;20522;-44
2021/04/20 06:30:16;;;;;;;45.17;28.90;;;23.60;91.20;;;;;;3605385;39;20716;-45
2021/04/20 06:32:45;;;;;;;39.00;28.60;;;23.80;91.30;;;;;;3607378;39;20577;-47
2021/04/20 06:35:15;;;;;;;34.70;26.93;;;23.90;91.40;;;;;;3608093;39;21201;-44
2021/04/20 06:37:43;;;;;;;32.63;26.43;;;23.90;91.40;;;;;;3607029;39;20691;-45
2021/04/20 06:40:13;;;;;;;34.77;24.73;;;24.00;91.50;;;;;;3596890;39;20469;-44
2021/04/20 06:42:46;;;;;;;32.20;24.67;;;24.10;91.50;;;;;;3605202;39;20840;-44
2021/04/20 06:45:18;;;;;;;29.33;24.10;;;24.20;91.60;;;;;;3606192;39;20498;-46
2021/04/20 06:47:54;;;;;;;26.07;23.27;;;24.20;91.60;;;;;;3608783;39;21070;-43
2021/04/20 06:50:22;;;;;;;23.77;21.23;;;24.30;91.70;;;;;;3607546;39;20514;-44
2021/04/20 06:52:53;;;;;;;23.53;20.13;;;24.30;91.60;;;;;;3606458;39;20687;-44
2021/04/20 06:55:25;;;;;;;32.27;20.20;;;24.40;91.70;;;;;;3606985;39;20588;-44
2021/04/20 06:58:04;;;;;;;22.90;20.47;;;24.40;91.70;;;;;;3604879;39;20481;-46
2021/04/20 07:00:42;;;;;;;24.43;19.50;;;24.40;91.70;;;;;;3607645;39;20492;-45
2021/04/20 07:03:18;;;;;;;19.80;17.73;;;24.40;91.70;;;;;;3594950;39;21113;-46
2021/04/20 07:05:49;;;;;;;19.77;17.67;;;24.50;91.80;;;;;;3608050;39;20472;-45
2021/04/20 07:08:23;;;;;;;20.13;18.07;;;24.50;91.80;;;;;;3602489;39;20485;-45
2021/04/20 07:10:51;;;;;;;19.17;17.40;;;24.50;91.90;;;;;;3609242;39;20735;-44
2021/04/20 07:13:21;;;;;;;18.53;15.43;;;24.50;91.90;;;;;;3602742;39;20478;-44
2021/04/20 07:15:55;;;;;;;17.80;16.20;;;24.50;91.90;;;;;;3596950;39;20898;-45
2021/04/20 07:18:48;;;;;;;17.50;15.73;;;24.50;92.00;;;;;;3597862;39;20498;-45
2021/04/20 07:21:23;;;;;;;16.10;14.67;;;24.50;92.00;;;;;;3597748;39;20499;-45
2021/04/20 07:24:12;;;;;;;15.73;14.43;;;24.50;92.00;;;;;;3600720;39;20524;-45
2021/04/20 07:27:06;;;;;;;16.63;14.97;;;24.60;92.10;;;;;;3593585;39;21126;-46
2021/04/20 07:30:02;;;;;;;15.93;14.60;;;24.60;92.10;;;;;;3602632;39;20516;-45
2021/04/20 07:32:33;;;;;;;15.03;13.60;;;24.50;92.10;;;;;;3603614;39;20482;-44
2021/04/20 07:35:14;;;;;;;15.97;14.40;;;24.50;92.10;;;;;;3602070;39;20493;-46
2021/04/20 07:37:46;;;;;;;14.50;13.40;;;24.50;92.20;;;;;;3601734;39;20492;-44
2021/04/20 07:40:23;;;;;;;14.70;13.60;;;24.50;92.20;;;;;;3606260;39;20497;-45
2021/04/20 07:43:00;;;;;;;24.67;13.93;;;24.60;92.30;;;;;;3604294;39;21332;-45
2021/04/20 07:45:36;;;;;;;15.37;13.83;;;24.50;92.30;;;;;;3610714;39;20508;-43
2021/04/20 07:48:10;;;;;;;15.00;13.47;;;24.50;92.30;;;;;;3608488;39;20472;-45
2021/04/20 07:50:44;;;;;;;14.57;13.27;;;24.60;92.40;;;;;;3611419;39;20520;-45
2021/04/20 07:53:19;;;;;;;13.53;12.33;;;24.50;92.40;;;;;;3609836;39;20500;-45
2021/04/20 07:55:52;;;;;;;13.80;12.60;;;24.50;92.40;;;;;;3609842;39;20477;-45
2021/04/20 07:58:21;;;;;;;14.30;13.20;;;24.50;92.40;;;;;;3611934;39;20484;-45
2021/04/20 08:00:53;;;;;;;14.47;13.37;;;24.50;92.50;;;;;;3606935;39;20967;-46
2021/04/20 08:03:31;;;;;;;13.57;12.43;;;24.50;92.50;;;;;;3601503;39;20493;-45
2021/04/20 08:06:02;;;;;;;12.33;11.33;;;24.60;92.50;;;;;;3599902;39;20503;-44
2021/04/20 08:08:33;;;;;;;13.50;12.50;;;24.50;92.50;;;;;;3605151;39;20577;-46
2021/04/20 08:11:03;;;;;;;13.57;12.57;;;24.50;92.60;;;;;;3607268;39;20492;-45
2021/04/20 08:13:35;;;;;;;12.67;11.77;;;24.50;92.60;;;;;;3607449;39;20496;-45
2021/04/20 08:16:09;;;;;;;12.70;11.83;;;24.50;92.60;;;;;;3600097;39;20488;-45
2021/04/20 08:18:43;;;;;;;13.70;12.60;;;24.50;92.70;;;;;;3599851;39;20481;-45
2021/04/20 08:21:13;;;;;;;13.97;12.83;;;24.50;92.70;;;;;;3600398;39;21122;-45
2021/04/20 08:23:49;;;;;;;12.60;11.73;;;24.50;92.70;;;;;;3602940;39;20785;-45
2021/04/20 08:26:21;;;;;;;13.97;12.87;;;24.40;92.70;;;;;;3609798;39;20489;-45
2021/04/20 08:28:55;;;;;;;13.47;12.37;;;24.40;92.70;;;;;;3604753;39;20485;-46
2021/04/20 08:31:31;;;;;;;13.23;12.20;;;24.40;92.70;;;;;;3610797;39;20835;-45
2021/04/20 08:34:06;;;;;;;13.40;12.13;;;24.50;92.80;;;;;;3602391;39;20716;-43
2021/04/20 08:36:37;;;;;;;11.53;10.83;;;24.40;92.80;;;;;;3592269;39;21012;-45
2021/04/20 08:39:15;;;;;;;12.57;11.63;;;24.40;92.80;;;;;;3596628;39;20519;-46
2021/04/20 08:41:46;;;;;;;13.47;12.47;;;24.50;92.90;;;;;;3599493;39;20527;-47
2021/04/20 08:44:26;;;;;;;11.67;10.97;;;24.50;92.90;;;;;;3598302;39;20464;-46
2021/04/20 08:47:02;;;;;;;12.17;11.27;;;24.50;93.00;;;;;;3599073;39;20507;-46
2021/04/20 08:49:41;;;;;;;12.60;11.50;;;24.50;93.00;;;;;;3603354;39;20469;-46
2021/04/20 08:52:31;;;;;;;12.43;11.63;;;24.50;93.10;;;;;;3609732;39;20827;-46
2021/04/20 08:55:07;;;;;;;13.40;12.47;;;24.40;93.10;;;;;;3599348;39;20959;-46
2021/04/20 08:57:49;;;;;;;12.60;11.60;;;24.50;93.20;;;;;;3594553;39;21254;-46
2021/04/20 09:00:22;;;;;;;13.03;12.13;;;24.40;93.20;;;;;;3610224;39;20488;-46
2021/04/20 09:03:00;;;;;;;11.90;11.10;;;24.40;93.20;;;;;;3602530;39;20496;-47
2021/04/20 09:05:32;;;;;;;12.27;11.50;;;24.40;93.20;;;;;;3601979;39;20586;-47
2021/04/20 09:08:32;;;;;;;11.37;10.57;;;24.40;93.20;;;;;;3607250;39;20773;-47
2021/04/20 09:11:06;;;;;;;11.87;10.93;;;24.40;93.30;;;;;;3608088;39;20488;-47
2021/04/20 09:13:41;;;;;;;11.67;10.87;;;24.40;93.30;;;;;;3611350;39;20485;-46
2021/04/20 09:16:12;;;;;;;11.60;10.90;;;24.40;93.30;;;;;;3610361;39;20491;-46
2021/04/20 09:18:42;;;;;;;12.37;11.43;;;24.40;93.40;;;;;;3609617;39;20496;-46
2021/04/20 09:21:16;;;;;;;12.60;11.60;;;24.40;93.50;;;;;;3609202;39;20549;-46
2021/04/20 09:23:52;;;;;;;12.13;11.33;;;24.40;93.50;;;;;;3607299;39;20497;-45
2021/04/20 09:26:29;;;;;;;12.67;11.77;;;24.40;93.50;;;;;;3603184;39;20580;-45
2021/04/20 09:29:00;;;;;;;12.30;11.43;;;24.30;93.50;;;;;;3601102;39;20965;-46
2021/04/20 09:31:35;;;;;;;12.07;11.17;;;24.30;93.50;;;;;;3601208;39;20826;-45
2021/04/20 09:34:05;;;;;;;11.67;10.87;;;24.30;93.60;;;;;;3599377;39;20587;-46
2021/04/20 09:36:35;;;;;;;12.00;11.10;;;24.30;93.60;;;;;;3599871;39;20525;-47
2021/04/20 09:39:05;;;;;;;12.37;11.57;;;24.30;93.60;;;;;;3602454;39;20587;-46
2021/04/20 09:41:36;;;;;;;13.17;12.07;;;24.30;93.60;;;;;;3601065;39;20505;-45
2021/04/20 09:44:28;;;;;;;11.77;10.67;;;24.30;93.70;;;;;;3600797;39;21415;-45
2021/04/20 09:47:12;;;;;;;12.57;11.77;;;24.30;93.70;;;;;;3602520;39;20471;-45
2021/04/20 09:49:47;;;;;;;12.20;11.20;;;24.30;93.70;;;;;;3607596;39;20491;-46
2021/04/20 09:52:17;;;;;;;11.70;10.90;;;24.20;93.60;;;;;;3595857;39;20683;-46
2021/04/20 09:54:49;;;;;;;12.77;11.50;;;24.30;93.70;;;;;;3596268;39;20739;-46
2021/04/20 09:57:20;;;;;;;11.70;11.00;;;24.30;93.70;;;;;;3596237;39;20480;-45
2021/04/20 09:59:52;;;;;;;12.13;11.23;;;24.20;93.60;;;;;;3586032;39;20635;-45
2021/04/20 10:02:40;;;;;;;12.80;11.80;;;24.20;93.50;;;;;;3602498;39;20496;-48
2021/04/20 10:05:14;;;;;;;12.67;11.77;;;24.20;93.50;;;;;;3604232;39;20520;-47
2021/04/20 10:07:56;;;;;;;11.77;10.90;;;24.30;93.50;;;;;;3600162;39;20491;-46
2021/04/20 10:10:35;;;;;;;12.13;11.23;;;24.20;93.50;;;;;;3599905;39;20493;-47
2021/04/20 10:13:22;;;;;;;12.53;11.50;;;24.20;93.50;;;;;;3600061;39;20496;-47
2021/04/20 10:15:59;;;;;;;12.40;11.17;;;24.20;93.90;;;;;;3599841;39;20482;-46
2021/04/20 10:18:32;;;;;;;11.63;10.83;;;24.20;93.60;;;;;;3605245;39;20479;-46
2021/04/20 10:21:07;;;;;;;12.47;11.60;;;24.20;93.60;;;;;;3609945;39;20589;-46
2021/04/20 10:23:46;;;;;;;11.70;10.60;;;24.20;93.60;;;;;;3607160;39;20488;-47
2021/04/20 10:26:21;;;;;;;11.53;10.63;;;24.20;93.60;;;;;;3607614;39;20484;-46
2021/04/20 10:28:56;;;;;;;11.60;10.60;;;24.20;93.60;;;;;;3601559;39;20485;-48
2021/04/20 10:31:29;;;;;;;11.60;10.67;;;24.20;93.60;;;;;;3602325;39;20499;-47
2021/04/20 10:33:56;;;;;;;11.73;10.67;;;24.20;93.60;;;;;;3588045;39;20487;-45
2021/04/20 10:36:26;;;;;;;10.77;10.07;;;24.20;93.70;;;;;;3604263;39;20495;-47
2021/04/20 10:38:56;;;;;;;11.90;10.87;;;24.20;93.70;;;;;;3600592;39;20486;-47
2021/04/20 10:41:29;;;;;;;11.20;10.40;;;24.20;93.70;;;;;;3600957;39;20494;-47
2021/04/20 10:43:58;;;;;;;10.73;9.93;;;24.20;93.70;;;;;;3600420;39;20492;-48
2021/04/20 10:46:26;;;;;;;11.20;10.23;;;24.20;93.60;;;;;;3608692;39;20502;-46
2021/04/20 10:48:56;;;;;;;11.43;10.50;;;24.20;93.60;;;;;;3613366;39;20550;-46
2021/04/20 10:51:30;;;;;;;12.30;11.40;;;24.20;93.60;;;;;;3600820;39;20494;-45
2021/04/20 10:53:59;;;;;;;12.00;11.00;;;24.20;93.60;;;;;;3602777;39;20502;-45
2021/04/20 10:56:28;;;;;;;10.63;9.93;;;24.20;93.70;;;;;;3601007;39;20527;-46
2021/04/20 10:58:58;;;;;;;10.47;9.77;;;24.20;93.60;;;;;;3590835;39;20587;-46
2021/04/20 11:01:43;;;;;;;10.63;9.83;;;24.20;93.70;;;;;;3595948;39;20724;-44
2021/04/20 11:04:11;;;;;;;11.97;11.03;;;24.20;93.70;;;;;;3595300;39;20533;-45
2021/04/20 11:07:17;;;;;;;12.10;11.10;;;24.20;93.70;;;;;;3599550;39;20474;-44
2021/04/20 11:09:47;;;;;;;11.90;10.80;;;24.20;93.70;;;;;;3603053;39;20864;-44
2021/04/20 11:12:43;;;;;;;10.80;10.10;;;24.20;93.70;;;;;;3602259;39;20476;-44
2021/04/20 11:15:15;;;;;;;11.23;10.53;;;24.20;93.70;;;;;;3606046;39;20510;-44
2021/04/20 11:17:52;;;;;;;10.23;9.50;;;24.20;93.70;;;;;;3605614;39;20472;-44
2021/04/20 11:20:29;;;;;;;11.33;10.63;;;24.20;93.80;;;;;;3612100;39;20489;-44
2021/04/20 11:23:08;;;;;;;11.30;10.50;;;24.20;93.80;;;;;;3608376;39;20486;-47
2021/04/20 11:25:42;;;;;;;11.70;10.90;;;24.20;93.90;;;;;;3601566;39;20486;-48
2021/04/20 11:28:16;;;;;;;11.23;10.50;;;24.20;93.90;;;;;;3601669;39;20483;-50
2021/04/20 11:30:53;;;;;;;10.53;9.93;;;24.20;93.90;;;;;;3601296;39;20480;-47
2021/04/20 11:33:25;;;;;;;11.40;10.50;;;24.20;94.00;;;;;;3612240;39;20578;-46
2021/04/20 11:35:53;;;;;;;10.90;9.73;;;24.20;94.00;;;;;;3605059;39;20731;-48
2021/04/20 11:38:20;;;;;;;11.00;10.20;;;24.20;94.00;;;;;;3603378;39;20488;-48
2021/04/20 11:40:57;;;;;;;12.50;11.03;;;24.20;94.00;;;;;;3609763;39;20582;-47
2021/04/20 11:43:26;;;;;;;10.83;10.13;;;24.20;94.00;;;;;;3608390;39;20530;-46
2021/04/20 11:45:55;;;;;;;11.13;10.23;;;24.20;94.00;;;;;;3601374;39;20481;-44
2021/04/20 11:48:27;;;;;;;10.77;10.07;;;24.20;94.00;;;;;;3602270;39;20486;-44
2021/04/20 11:50:56;;;;;;;10.93;10.00;;;24.20;94.10;;;;;;3597821;39;20468;-44
2021/04/20 11:53:23;;;;;;;11.07;10.30;;;24.10;94.00;;;;;;3602931;39;20494;-45
2021/04/20 11:55:57;;;;;;;10.27;9.67;;;24.10;94.10;;;;;;3595828;39;20776;-44
2021/04/20 11:58:27;;;;;;;11.23;10.33;;;24.10;94.20;;;;;;3595890;39;20529;-46
2021/04/20 12:00:58;;;;;;;11.10;10.40;;;24.10;94.20;;;;;;3594249;39;20942;-44
2021/04/20 12:03:26;;;;;;;11.53;10.73;;;24.10;94.20;;;;;;3598028;39;21040;-44
2021/04/20 12:05:55;;;;;;;10.33;9.63;;;24.10;94.20;;;;;;3611702;39;20912;-45
2021/04/20 12:08:30;;;;;;;12.07;10.93;;;24.00;94.20;;;;;;3608499;39;20488;-45
2021/04/20 12:11:12;;;;;;;10.67;10.00;;;24.10;94.30;;;;;;3600774;39;20492;-44
2021/04/20 12:13:44;;;;;;;11.13;10.30;;;24.10;94.30;;;;;;3607946;39;20546;-44
2021/04/20 12:16:12;;;;;;;10.10;9.50;;;24.10;94.30;;;;;;3607759;39;20525;-44
2021/04/20 12:18:42;;;;;;;12.63;11.43;;;24.00;94.30;;;;;;3606309;39;20578;-44
2021/04/20 12:21:18;;;;;;;10.50;9.70;;;24.00;94.30;;;;;;3596466;39;20477;-44
2021/04/20 12:23:49;;;;;;;11.57;10.70;;;24.00;94.30;;;;;;3609552;39;20487;-46
2021/04/20 12:26:17;;;;;;;11.77;10.90;;;24.00;94.30;;;;;;3597683;39;20497;-45
2021/04/20 12:28:49;;;;;;;11.07;10.27;;;24.10;94.30;;;;;;3596905;39;21072;-44
2021/04/20 12:31:16;;;;;;;11.57;10.67;;;24.00;94.30;;;;;;3599785;39;20662;-44
2021/04/20 12:33:47;;;;;;;11.50;10.70;;;24.00;94.30;;;;;;3605586;39;20488;-45
2021/04/20 12:36:29;;;;;;;10.57;9.87;;;24.00;94.30;;;;;;3601775;39;20489;-44
2021/04/20 12:38:59;;;;;;;11.87;11.07;;;24.00;94.40;;;;;;3607401;39;21017;-45
2021/04/20 12:41:29;;;;;;;11.27;10.27;;;24.00;94.40;;;;;;3610892;39;20488;-43
2021/04/20 12:44:07;;;;;;;11.17;10.47;;;24.00;94.40;;;;;;3606693;39;21145;-45
2021/04/20 12:46:36;;;;;;;10.07;9.50;;;24.00;94.50;;;;;;3613341;39;20664;-44
2021/04/20 12:49:06;;;;;;;9.67;9.07;;;24.00;94.50;;;;;;3600928;39;20492;-45
2021/04/20 12:51:38;;;;;;;10.27;9.60;;;24.00;94.50;;;;;;3603305;39;20972;-44
2021/04/20 12:54:09;;;;;;;10.90;10.20;;;24.00;94.50;;;;;;3610110;39;20488;-46
2021/04/20 12:56:39;;;;;;;11.17;10.43;;;24.00;94.50;;;;;;3614170;39;20491;-44